createdAt,value
2018-08-07T00:02:01.115Z,6.80
2018-08-07T00:04:29.316Z,7.30
2018-08-07T00:06:57.564Z,6.53
2018-08-07T00:09:25.806Z,6.10
2018-08-07T00:11:54.011Z,6.23
2018-08-07T00:14:22.207Z,6.10
2018-08-07T00:16:50.417Z,6.50
2018-08-07T00:19:18.595Z,5.43
2018-08-07T00:21:46.794Z,5.57
2018-08-07T00:24:14.991Z,5.93
2018-08-07T00:26:43.176Z,5.63
2018-08-07T00:29:11.369Z,5.40
2018-08-07T00:31:39.621Z,5.50
2018-08-07T00:34:07.985Z,5.70
2018-08-07T00:36:36.228Z,6.80
2018-08-07T00:39:06.622Z,5.63
2018-08-07T00:41:34.861Z,5.43
2018-08-07T00:44:03.068Z,5.77
2018-08-07T00:46:31.311Z,5.57
2018-08-07T00:48:59.509Z,5.40
2018-08-07T00:51:27.917Z,5.63
2018-08-07T00:53:56.134Z,6.00
2018-08-07T00:56:24.308Z,5.67
2018-08-07T00:58:52.517Z,5.33
2018-08-07T01:01:20.700Z,5.00
2018-08-07T01:03:48.882Z,5.87
2018-08-07T01:06:17.060Z,5.43
2018-08-07T01:08:45.323Z,5.03
2018-08-07T01:11:13.484Z,5.03
2018-08-07T01:13:41.674Z,4.70
2018-08-07T01:16:09.894Z,5.53
2018-08-07T01:18:38.119Z,5.33
2018-08-07T01:21:06.550Z,5.30
2018-08-07T01:23:34.784Z,5.83
2018-08-07T01:26:02.976Z,4.80
2018-08-07T01:28:31.191Z,5.10
2018-08-07T01:30:59.401Z,5.47
2018-08-07T01:33:27.618Z,6.00
2018-08-07T01:35:55.785Z,5.13
2018-08-07T01:38:24.023Z,5.73
2018-08-07T01:40:52.243Z,6.07
2018-08-07T01:43:20.419Z,6.07
2018-08-07T01:45:48.684Z,6.00
2018-08-07T01:48:16.928Z,5.53
2018-08-07T01:50:45.149Z,5.83
2018-08-07T01:53:13.368Z,5.00
2018-08-07T01:55:41.571Z,5.50
2018-08-07T01:58:09.790Z,5.00
2018-08-07T02:00:37.998Z,5.30
2018-08-07T02:03:06.259Z,5.57
2018-08-07T02:05:34.470Z,4.80
2018-08-07T02:08:02.738Z,5.13
2018-08-07T02:10:30.998Z,5.23
2018-08-07T02:12:59.197Z,5.23
2018-08-07T02:15:27.494Z,5.00
2018-08-07T02:17:55.708Z,5.10
2018-08-07T02:20:23.944Z,4.40
2018-08-07T02:22:52.165Z,5.20
2018-08-07T02:25:20.388Z,4.97
2018-08-07T02:27:48.885Z,5.23
2018-08-07T02:30:17.433Z,4.43
2018-08-07T02:32:45.624Z,5.27
2018-08-07T02:35:15.016Z,4.97
2018-08-07T02:37:44.431Z,5.30
2018-08-07T02:40:13.246Z,5.57
2018-08-07T02:42:41.703Z,5.10
2018-08-07T02:45:11.137Z,5.43
2018-08-07T02:47:40.002Z,5.30
2018-08-07T02:50:08.632Z,5.00
2018-08-07T02:52:37.331Z,5.70
2018-08-07T02:55:06.104Z,5.07
2018-08-07T02:57:34.335Z,5.00
2018-08-07T03:00:02.612Z,4.87
2018-08-07T03:02:30.872Z,4.90
2018-08-07T03:04:59.102Z,4.67
2018-08-07T03:07:27.348Z,5.20
2018-08-07T03:09:55.598Z,4.93
2018-08-07T03:12:23.881Z,5.10
2018-08-07T03:14:52.199Z,5.17
2018-08-07T03:17:20.452Z,5.00
2018-08-07T03:19:48.754Z,5.50
2018-08-07T03:22:16.923Z,6.33
2018-08-07T03:24:45.142Z,5.23
2018-08-07T03:27:13.436Z,5.10
2018-08-07T03:29:41.680Z,4.33
2018-08-07T03:32:09.845Z,4.90
2018-08-07T03:34:38.367Z,4.67
2018-08-07T03:37:06.619Z,4.60
2018-08-07T03:39:34.871Z,4.67
2018-08-07T03:42:03.096Z,4.50
2018-08-07T03:44:31.343Z,4.60
2018-08-07T03:46:59.566Z,4.57
2018-08-07T03:49:27.837Z,4.83
2018-08-07T03:51:56.010Z,4.80
2018-08-07T03:54:24.237Z,4.20
2018-08-07T03:56:52.436Z,4.60
2018-08-07T03:59:20.643Z,4.70
2018-08-07T04:01:48.852Z,4.03
2018-08-07T04:04:17.055Z,4.47
2018-08-07T04:06:45.365Z,4.40
2018-08-07T04:09:14.926Z,4.17
2018-08-07T04:11:43.371Z,4.13
2018-08-07T04:14:12.150Z,4.50
2018-08-07T04:16:45.410Z,4.33
2018-08-07T04:19:13.621Z,4.57
2018-08-07T04:21:41.831Z,4.53
2018-08-07T04:24:10.036Z,4.47
2018-08-07T04:26:38.234Z,4.60
2018-08-07T04:29:07.061Z,4.93
2018-08-07T04:31:35.292Z,4.97
2018-08-07T04:34:03.505Z,5.73
2018-08-07T04:36:31.709Z,5.07
2018-08-07T04:39:00.017Z,5.03
2018-08-07T04:41:28.224Z,5.23
2018-08-07T04:43:56.379Z,5.33
2018-08-07T04:46:24.673Z,5.30
2018-08-07T04:48:52.900Z,4.40
2018-08-07T04:51:21.096Z,4.73
2018-08-07T04:53:49.272Z,4.70
2018-08-07T04:56:17.489Z,4.77
2018-08-07T04:58:45.655Z,5.13
2018-08-07T05:01:13.833Z,5.23
2018-08-07T05:03:42.003Z,4.67
2018-08-07T05:06:10.248Z,5.13
2018-08-07T05:08:38.460Z,4.70
2018-08-07T05:11:06.710Z,5.13
2018-08-07T05:13:34.897Z,5.80
2018-08-07T05:16:03.064Z,5.33
2018-08-07T05:18:31.254Z,5.00
2018-08-07T05:20:59.476Z,4.70
2018-08-07T05:23:27.655Z,5.00
2018-08-07T05:25:55.848Z,5.40
2018-08-07T05:28:24.051Z,5.60
2018-08-07T05:30:52.230Z,4.97
2018-08-07T05:33:20.472Z,5.07
2018-08-07T05:35:48.761Z,5.13
2018-08-07T05:38:16.954Z,4.60
2018-08-07T05:40:45.231Z,4.83
2018-08-07T05:43:13.377Z,6.10
2018-08-07T05:45:41.583Z,4.57
2018-08-07T05:48:09.836Z,5.30
2018-08-07T05:50:38.170Z,5.63
2018-08-07T05:53:06.252Z,5.30
2018-08-07T05:55:34.433Z,5.37
2018-08-07T05:58:02.727Z,4.87
2018-08-07T06:00:30.821Z,5.30
2018-08-07T06:02:59.000Z,4.83
2018-08-07T06:05:27.169Z,5.30
2018-08-07T06:07:55.749Z,5.80
2018-08-07T06:10:23.935Z,4.60
2018-08-07T06:12:52.137Z,5.13
2018-08-07T06:15:20.352Z,5.10
2018-08-07T06:17:48.568Z,4.67
2018-08-07T06:20:16.754Z,5.07
2018-08-07T06:22:44.948Z,5.30
2018-08-07T06:25:13.141Z,5.00
2018-08-07T06:27:41.342Z,5.17
2018-08-07T06:30:11.695Z,5.10
2018-08-07T06:32:39.905Z,4.73
2018-08-07T06:35:08.421Z,5.47
2018-08-07T06:37:36.611Z,5.00
2018-08-07T06:40:05.588Z,4.10
2018-08-07T06:42:33.768Z,4.80
2018-08-07T06:45:01.988Z,4.77
2018-08-07T06:47:30.228Z,4.10
2018-08-07T06:49:58.419Z,4.77
2018-08-07T06:52:26.674Z,4.47
2018-08-07T06:54:54.882Z,4.10
2018-08-07T06:57:23.126Z,3.73
2018-08-07T06:59:51.317Z,4.30
2018-08-07T07:02:19.563Z,4.97
2018-08-07T07:04:49.119Z,5.20
2018-08-07T07:07:17.331Z,4.30
2018-08-07T07:09:45.561Z,5.37
2018-08-07T07:12:13.768Z,4.60
2018-08-07T07:14:42.004Z,5.17
2018-08-07T07:22:50.043Z,4.90
2018-08-07T07:25:18.253Z,4.50
2018-08-07T07:27:46.529Z,4.27
2018-08-07T07:30:17.193Z,4.50
2018-08-07T07:32:46.803Z,4.30
2018-08-07T07:35:15.720Z,4.33
2018-08-07T07:37:44.201Z,4.00
2018-08-07T07:40:12.427Z,4.80
2018-08-07T07:42:40.708Z,5.10
2018-08-07T07:45:11.089Z,4.37
2018-08-07T07:47:40.196Z,4.40
2018-08-07T07:50:09.496Z,4.50
2018-08-07T07:52:37.824Z,4.20
2018-08-07T07:55:06.613Z,3.90
2018-08-07T07:57:34.955Z,4.80
2018-08-07T08:00:03.157Z,4.27
2018-08-07T08:02:31.396Z,4.83
2018-08-07T08:04:59.628Z,4.77
2018-08-07T08:07:27.847Z,4.10
2018-08-07T08:09:56.096Z,4.27
2018-08-07T08:12:24.332Z,5.03
2018-08-07T08:14:52.561Z,5.40
2018-08-07T08:17:20.858Z,4.63
2018-08-07T08:19:49.118Z,4.50
2018-08-07T08:22:17.358Z,4.43
2018-08-07T08:24:45.637Z,4.50
2018-08-07T08:27:13.915Z,4.37
2018-08-07T08:29:42.659Z,5.13
2018-08-07T08:32:10.812Z,4.50
2018-08-07T08:34:39.047Z,5.43
2018-08-07T08:37:07.305Z,4.53
2018-08-07T08:39:35.542Z,4.33
2018-08-07T08:42:03.796Z,4.13
2018-08-07T08:44:32.016Z,4.80
2018-08-07T08:47:00.270Z,5.30
2018-08-07T08:49:28.484Z,5.07
2018-08-07T08:51:56.701Z,5.17
2018-08-07T08:54:24.951Z,5.73
2018-08-07T08:56:53.143Z,4.87
2018-08-07T08:59:21.393Z,5.50
2018-08-07T09:01:49.572Z,4.90
2018-08-07T09:04:17.785Z,4.50
2018-08-07T09:06:45.999Z,5.03
2018-08-07T09:09:14.448Z,5.10
2018-08-07T09:11:42.638Z,5.00
2018-08-07T09:14:10.972Z,5.40
2018-08-07T09:16:39.536Z,5.30
2018-08-07T09:19:08.122Z,5.40
2018-08-07T09:21:36.933Z,4.93
2018-08-07T09:24:05.224Z,5.63
2018-08-07T09:26:33.405Z,5.03
2018-08-07T09:29:01.642Z,5.60
2018-08-07T09:31:29.834Z,5.40
2018-08-07T09:33:58.037Z,5.03
2018-08-07T09:36:26.652Z,5.50
2018-08-07T09:38:54.854Z,5.17
2018-08-07T09:41:23.094Z,5.50
2018-08-07T09:43:51.360Z,4.53
2018-08-07T09:46:19.603Z,4.93
2018-08-07T09:48:47.836Z,4.97
2018-08-07T09:51:16.070Z,5.53
2018-08-07T09:53:44.255Z,6.07
2018-08-07T09:56:12.505Z,6.20
2018-08-07T09:58:40.838Z,6.10
2018-08-07T10:01:14.336Z,5.60
2018-08-07T10:03:42.521Z,5.30
2018-08-07T10:06:10.747Z,5.40
2018-08-07T10:08:39.012Z,5.57
2018-08-07T10:11:07.243Z,5.80
2018-08-07T10:13:35.468Z,5.90
2018-08-07T10:16:03.690Z,5.63
2018-08-07T10:18:31.882Z,4.60
2018-08-07T10:21:00.519Z,5.10
2018-08-07T10:23:28.714Z,4.90
2018-08-07T10:25:57.596Z,4.70
2018-08-07T10:28:25.791Z,4.90
2018-08-07T10:30:54.036Z,5.00
2018-08-07T10:33:22.234Z,5.40
2018-08-07T10:35:50.481Z,5.40
2018-08-07T10:38:18.710Z,4.80
2018-08-07T10:40:47.012Z,4.63
2018-08-07T10:43:15.290Z,4.40
2018-08-07T10:45:43.412Z,4.70
2018-08-07T10:48:11.660Z,5.10
2018-08-07T10:50:39.978Z,5.50
2018-08-07T10:53:08.170Z,4.70
2018-08-07T10:55:36.408Z,5.00
2018-08-07T10:58:04.655Z,5.10
2018-08-07T11:00:33.950Z,5.47
2018-08-07T11:03:02.491Z,5.87
2018-08-07T11:05:31.018Z,4.80
2018-08-07T11:07:59.351Z,5.50
2018-08-07T11:10:27.620Z,5.40
2018-08-07T11:12:55.948Z,4.97
2018-08-07T11:15:26.976Z,5.10
2018-08-07T11:17:55.984Z,5.27
2018-08-07T11:20:24.273Z,4.57
2018-08-07T11:22:53.595Z,5.37
2018-08-07T11:25:23.162Z,5.40
2018-08-07T11:27:51.379Z,4.97
2018-08-07T11:30:21.250Z,5.33
2018-08-07T11:32:49.869Z,5.30
2018-08-07T11:35:18.664Z,5.60
2018-08-07T11:37:47.652Z,5.60
2018-08-07T11:40:17.605Z,5.33
2018-08-07T11:42:47.123Z,5.23
2018-08-07T11:45:16.575Z,5.20
2018-08-07T11:47:44.904Z,5.70
2018-08-07T11:50:15.747Z,5.77
2018-08-07T11:52:44.007Z,5.53
2018-08-07T11:55:13.471Z,5.80
2018-08-07T11:57:41.711Z,5.13
2018-08-07T12:00:17.480Z,5.93
2018-08-07T12:02:46.121Z,5.83
2018-08-07T12:05:14.605Z,5.73
2018-08-07T12:07:42.856Z,5.93
2018-08-07T12:10:12.175Z,5.80
2018-08-07T12:12:41.292Z,6.30
2018-08-07T12:15:10.534Z,5.97
2018-08-07T12:17:38.924Z,5.43
2018-08-07T12:20:07.558Z,5.37
2018-08-07T12:22:35.760Z,5.40
2018-08-07T12:25:04.629Z,5.63
2018-08-07T12:27:32.841Z,5.40
2018-08-07T12:30:01.338Z,5.20
2018-08-07T12:32:29.556Z,5.80
2018-08-07T12:34:57.804Z,5.07
2018-08-07T12:37:26.048Z,5.77
2018-08-07T12:39:54.314Z,5.60
2018-08-07T12:42:22.557Z,5.17
2018-08-07T12:44:50.754Z,5.57
2018-08-07T12:47:18.987Z,5.70
2018-08-07T12:49:47.189Z,4.90
2018-08-07T12:52:15.398Z,5.50
2018-08-07T12:54:43.613Z,5.77
2018-08-07T12:57:11.812Z,5.60
2018-08-07T12:59:40.010Z,6.10
2018-08-07T13:02:08.185Z,5.00
2018-08-07T13:04:36.433Z,6.10
2018-08-07T13:07:04.608Z,5.80
2018-08-07T13:09:32.774Z,4.93
2018-08-07T13:12:00.947Z,6.30
2018-08-07T13:14:29.159Z,5.07
2018-08-07T13:16:57.389Z,6.60
2018-08-07T13:19:25.537Z,6.17
2018-08-07T13:21:53.730Z,6.30
2018-08-07T13:24:21.931Z,6.50
2018-08-07T13:26:50.120Z,6.33
2018-08-07T13:29:18.299Z,6.43
2018-08-07T13:31:46.472Z,6.80
2018-08-07T13:34:14.642Z,6.07
2018-08-07T13:36:42.829Z,6.70
2018-08-07T13:39:11.329Z,5.57
2018-08-07T13:41:39.552Z,5.87
2018-08-07T13:44:08.628Z,5.20
2018-08-07T13:46:36.962Z,5.80
2018-08-07T13:49:05.565Z,5.53
2018-08-07T13:51:33.852Z,5.50
2018-08-07T13:54:02.073Z,6.20
2018-08-07T13:56:30.324Z,5.50
2018-08-07T13:58:58.528Z,5.20
2018-08-07T14:01:26.759Z,6.27
2018-08-07T14:03:54.945Z,6.77
2018-08-07T14:06:23.180Z,7.70
2018-08-07T14:08:51.388Z,8.73
2018-08-07T14:11:19.632Z,8.03
2018-08-07T14:13:48.014Z,8.57
2018-08-07T14:16:16.250Z,8.63
2018-08-07T14:18:44.468Z,6.57
2018-08-07T14:21:12.683Z,7.20
2018-08-07T14:23:40.908Z,6.80
2018-08-07T14:26:09.116Z,7.60
2018-08-07T14:28:37.370Z,6.80
2018-08-07T14:31:05.589Z,6.90
2018-08-07T14:33:33.797Z,6.77
2018-08-07T14:36:02.005Z,6.70
2018-08-07T14:38:30.278Z,7.20
2018-08-07T14:40:58.444Z,7.40
2018-08-07T14:43:26.665Z,6.37
2018-08-07T14:50:05.060Z,7.00
2018-08-07T14:52:33.291Z,6.50
2018-08-07T14:55:01.511Z,7.00
2018-08-07T14:57:29.726Z,5.97
2018-08-07T14:59:57.892Z,6.40
2018-08-07T15:02:26.065Z,6.20
2018-08-07T15:04:54.404Z,6.27
2018-08-07T15:07:22.583Z,5.67
2018-08-07T15:09:50.827Z,5.10
2018-08-07T15:12:19.095Z,6.33
2018-08-07T15:14:47.304Z,6.63
2018-08-07T15:17:15.497Z,5.57
2018-08-07T15:19:43.753Z,5.77
2018-08-07T15:22:11.936Z,6.53
2018-08-07T15:24:40.100Z,6.37
2018-08-07T15:27:08.280Z,6.43
2018-08-07T15:29:36.507Z,5.43
2018-08-07T15:32:04.663Z,6.50
2018-08-07T15:34:32.901Z,5.80
2018-08-07T15:37:01.109Z,6.30
2018-08-07T15:39:29.329Z,6.00
2018-08-07T15:41:57.537Z,5.50
2018-08-07T15:44:25.742Z,5.20
2018-08-07T15:46:53.921Z,4.27
2018-08-07T15:49:22.125Z,4.60
2018-08-07T15:51:50.316Z,5.17
2018-08-07T15:54:18.524Z,5.60
2018-08-07T15:56:46.728Z,5.40
2018-08-07T15:59:14.957Z,5.60
2018-08-07T16:01:43.129Z,6.00
2018-08-07T16:04:11.319Z,6.90
2018-08-07T16:06:39.522Z,6.60
2018-08-07T16:09:08.434Z,6.53
2018-08-07T16:11:36.739Z,6.20
2018-08-07T16:14:04.937Z,6.40
2018-08-07T16:16:33.117Z,6.40
2018-08-07T16:19:01.322Z,6.57
2018-08-07T16:21:29.528Z,6.40
2018-08-07T16:23:57.791Z,5.60
2018-08-07T16:26:25.964Z,5.30
2018-08-07T16:28:54.139Z,5.47
2018-08-07T16:31:22.337Z,5.27
2018-08-07T16:33:50.512Z,5.00
2018-08-07T16:36:18.714Z,4.83
2018-08-07T16:38:46.924Z,4.00
2018-08-07T16:41:15.106Z,4.10
2018-08-07T16:43:43.285Z,4.60
2018-08-07T16:46:11.512Z,6.30
2018-08-07T16:48:39.734Z,6.23
2018-08-07T16:51:07.923Z,6.43
2018-08-07T16:53:36.097Z,5.90
2018-08-07T16:56:04.564Z,10.60
2018-08-07T16:58:32.786Z,11.60
2018-08-07T17:01:00.962Z,5.90
2018-08-07T17:03:29.116Z,5.20
2018-08-07T17:05:57.323Z,5.27
2018-08-07T17:08:25.481Z,6.00
2018-08-07T17:10:53.664Z,5.47
2018-08-07T17:13:21.831Z,6.00
2018-08-07T17:15:50.013Z,6.00
2018-08-07T17:18:18.161Z,5.53
2018-08-07T17:20:46.327Z,6.37
2018-08-07T17:23:14.522Z,6.57
2018-08-07T17:25:42.780Z,8.33
2018-08-07T17:28:10.954Z,7.50
2018-08-07T17:30:40.226Z,6.43
2018-08-07T17:33:08.361Z,7.10
2018-08-07T17:35:36.503Z,6.37
2018-08-07T17:38:04.721Z,6.83
2018-08-07T17:40:32.899Z,8.57
2018-08-07T17:43:01.127Z,6.87
2018-08-07T17:45:29.280Z,6.40
2018-08-07T17:47:57.497Z,6.17
2018-08-07T17:50:26.045Z,6.37
2018-08-07T17:52:56.356Z,5.50
2018-08-07T17:55:24.548Z,6.73
2018-08-07T17:57:53.392Z,6.10
2018-08-07T18:00:22.449Z,6.80
2018-08-07T18:02:50.666Z,7.43
2018-08-07T18:05:18.864Z,7.03
2018-08-07T18:07:48.148Z,7.10
2018-08-07T18:10:16.970Z,7.23
2018-08-07T18:12:45.483Z,7.63
2018-08-07T18:23:37.984Z,8.50
2018-08-07T18:26:06.214Z,7.37
2018-08-07T18:28:34.471Z,8.17
2018-08-07T18:31:02.609Z,8.10
2018-08-07T18:33:30.792Z,7.97
2018-08-07T18:35:59.014Z,6.97
2018-08-07T18:38:27.225Z,8.30
2018-08-07T18:40:55.412Z,8.33
2018-08-07T18:43:23.656Z,8.20
2018-08-07T18:45:51.829Z,7.37
2018-08-07T18:48:20.064Z,7.30
2018-08-07T18:50:48.267Z,7.27
2018-08-07T18:53:16.453Z,7.40
2018-08-07T18:55:44.645Z,6.70
2018-08-07T18:58:12.888Z,7.63
2018-08-07T19:00:41.083Z,7.70
2018-08-07T19:03:09.279Z,8.03
2018-08-07T19:05:37.457Z,7.63
2018-08-07T19:08:06.864Z,8.17
2018-08-07T19:10:35.036Z,7.63
2018-08-07T19:13:03.232Z,7.50
2018-08-07T19:15:31.473Z,7.70
2018-08-07T19:17:59.693Z,7.30
2018-08-07T19:20:27.893Z,8.10
2018-08-07T19:22:56.113Z,10.03
2018-08-07T19:25:24.322Z,8.03
2018-08-07T19:27:52.508Z,8.00
2018-08-07T19:30:22.364Z,8.80
2018-08-07T19:32:50.591Z,8.97
2018-08-07T19:35:18.927Z,8.77
2018-08-07T19:37:47.157Z,9.13
2018-08-07T19:40:16.178Z,7.40
2018-08-07T19:42:45.334Z,7.97
2018-08-07T19:45:13.830Z,7.03
2018-08-07T19:47:42.431Z,7.73
2018-08-07T19:50:11.853Z,8.00
2018-08-07T19:52:40.188Z,7.83
2018-08-07T19:55:09.711Z,7.77
2018-08-07T19:57:37.961Z,7.33
2018-08-07T20:00:09.496Z,7.30
2018-08-07T20:02:37.661Z,7.50
2018-08-07T20:05:06.017Z,7.70
2018-08-07T20:07:34.240Z,8.47
2018-08-07T20:10:02.481Z,8.30
2018-08-07T20:12:30.719Z,8.37
2018-08-07T20:14:58.911Z,9.20
2018-08-07T20:17:27.249Z,8.83
2018-08-07T20:19:55.364Z,8.67
2018-08-07T20:22:23.585Z,8.40
2018-08-07T20:24:51.780Z,7.47
2018-08-07T20:27:20.008Z,8.60
2018-08-07T20:29:48.190Z,8.17
2018-08-07T20:32:16.431Z,8.27
2018-08-07T20:34:44.623Z,7.60
2018-08-07T20:37:13.035Z,7.43
2018-08-07T20:39:41.534Z,8.67
2018-08-07T20:42:09.732Z,9.00
2018-08-07T20:44:37.964Z,7.77
2018-08-07T20:47:06.203Z,10.17
2018-08-07T20:49:34.400Z,8.10
2018-08-07T20:52:02.669Z,8.43
2018-08-07T20:54:30.905Z,7.70
2018-08-07T20:56:59.116Z,8.30
2018-08-07T20:59:27.318Z,7.47
2018-08-07T21:01:55.553Z,8.97
2018-08-07T21:04:23.728Z,8.10
2018-08-07T21:06:51.977Z,7.70
2018-08-07T21:09:20.229Z,7.93
2018-08-07T21:12:05.286Z,8.30
2018-08-07T21:14:33.511Z,8.43
2018-08-07T21:17:01.721Z,7.60
2018-08-07T21:19:29.883Z,7.77
2018-08-07T21:21:58.071Z,9.53
2018-08-07T21:24:26.264Z,8.83
2018-08-07T21:26:57.998Z,9.10
2018-08-07T21:29:26.885Z,8.60
2018-08-07T21:31:56.336Z,9.50
2018-08-07T21:34:24.724Z,8.07
2018-08-07T21:36:52.909Z,8.60
2018-08-07T21:39:21.108Z,8.90
2018-08-07T21:41:49.290Z,9.43
2018-08-07T21:44:17.464Z,9.03
2018-08-07T21:46:45.664Z,8.10
2018-08-07T21:49:13.888Z,8.40
2018-08-07T21:51:55.564Z,9.10
2018-08-07T21:54:23.824Z,8.63
2018-08-07T21:56:52.045Z,8.60
2018-08-07T21:59:20.296Z,8.13
2018-08-07T22:01:48.527Z,8.10
2018-08-07T22:04:16.821Z,9.03
2018-08-07T22:06:45.080Z,9.27
2018-08-07T22:09:13.399Z,8.50
2018-08-07T22:11:41.597Z,8.80
2018-08-07T22:14:09.825Z,8.80
2018-08-07T22:16:38.066Z,8.57
2018-08-07T22:19:06.371Z,8.30
2018-08-07T22:21:34.601Z,8.00
2018-08-07T22:24:02.878Z,10.10
2018-08-07T22:26:31.092Z,9.10
2018-08-07T22:28:59.347Z,8.97
2018-08-07T22:31:27.603Z,10.27
2018-08-07T22:33:55.798Z,10.63
2018-08-07T22:36:24.056Z,8.83
2018-08-07T22:38:52.425Z,9.27
2018-08-07T22:41:20.683Z,9.40
2018-08-07T22:43:48.928Z,8.53
2018-08-07T22:46:17.184Z,9.67
2018-08-07T22:48:45.438Z,8.20
2018-08-07T22:51:13.687Z,8.33
2018-08-07T22:53:41.921Z,9.33
2018-08-07T22:56:10.168Z,9.07
2018-08-07T22:58:38.379Z,8.50
2018-08-07T23:01:06.867Z,8.57
2018-08-07T23:03:35.065Z,9.87
2018-08-07T23:06:03.287Z,9.57
2018-08-07T23:08:31.519Z,10.03
2018-08-07T23:10:59.755Z,9.70
2018-08-07T23:13:28.003Z,10.20
2018-08-07T23:15:56.233Z,8.30
2018-08-07T23:18:24.477Z,9.37
2018-08-07T23:20:52.736Z,9.23
2018-08-07T23:23:20.949Z,9.07
2018-08-07T23:25:49.195Z,9.63
2018-08-07T23:28:17.399Z,9.40
2018-08-07T23:30:45.626Z,9.93
2018-08-07T23:33:13.866Z,8.80
2018-08-07T23:35:42.125Z,9.17
2018-08-07T23:38:10.351Z,9.37
2018-08-07T23:40:38.596Z,10.47
2018-08-07T23:43:06.834Z,9.23
2018-08-07T23:45:35.068Z,9.33
2018-08-07T23:48:03.411Z,9.53
2018-08-07T23:50:31.681Z,10.80
2018-08-07T23:52:59.900Z,10.60
2018-08-07T23:55:28.138Z,10.17
2018-08-07T23:57:56.377Z,10.23
